sensor_id;sensor_type;location;lat;lon;timestamp;P1;durP1;ratioP1;P2;durP2;ratioP2
16837;SDS011;19510;54.486;9.046;2022-08-02T04:07:38;8.90;;;2.38;;
16837;SDS011;19510;54.486;9.046;2022-08-02T04:10:24;7.80;;;2.20;;
16837;SDS011;19510;54.486;9.046;2022-08-02T04:12:50;7.43;;;2.13;;
16837;SDS011;19510;54.486;9.046;2022-08-02T04:15:16;9.32;;;2.20;;
16837;SDS011;19510;54.486;9.046;2022-08-02T04:17:44;8.43;;;2.20;;
16837;SDS011;19510;54.486;9.046;2022-08-02T04:20:23;6.35;;;2.08;;
16837;SDS011;19510;54.486;9.046;2022-08-02T04:23:06;8.15;;;2.63;;
16837;SDS011;19510;54.486;9.046;2022-08-02T04:25:34;8.27;;;2.10;;
16837;SDS011;19510;54.486;9.046;2022-08-02T04:28:00;3.42;;;2.00;;
16837;SDS011;19510;54.486;9.046;2022-08-02T04:30:27;4.07;;;2.13;;
16837;SDS011;19510;54.486;9.046;2022-08-02T04:32:54;8.38;;;2.05;;
16837;SDS011;19510;54.486;9.046;2022-08-02T04:35:20;6.82;;;2.45;;
16837;SDS011;19510;54.486;9.046;2022-08-02T04:37:46;6.43;;;1.77;;
16837;SDS011;19510;54.486;9.046;2022-08-02T04:40:13;11.55;;;2.15;;
16837;SDS011;19510;54.486;9.046;2022-08-02T04:42:39;3.15;;;1.92;;
16837;SDS011;19510;54.486;9.046;2022-08-02T04:45:06;15.13;;;2.25;;
16837;SDS011;19510;54.486;9.046;2022-08-02T04:47:33;5.65;;;2.53;;
16837;SDS011;19510;54.486;9.046;2022-08-02T04:49:59;6.60;;;2.72;;
16837;SDS011;19510;54.486;9.046;2022-08-02T04:52:25;6.25;;;1.67;;
16837;SDS011;19510;54.486;9.046;2022-08-02T04:54:51;7.43;;;2.30;;
16837;SDS011;19510;54.486;9.046;2022-08-02T04:57:18;7.72;;;1.85;;
16837;SDS011;19510;54.486;9.046;2022-08-02T05:00:03;5.97;;;1.65;;
16837;SDS011;19510;54.486;9.046;2022-08-02T05:02:30;4.82;;;1.63;;
16837;SDS011;19510;54.486;9.046;2022-08-02T05:04:57;2.63;;;1.50;;
16837;SDS011;19510;54.486;9.046;2022-08-02T05:07:23;4.10;;;1.73;;
16837;SDS011;19510;54.486;9.046;2022-08-02T05:09:48;4.88;;;1.88;;
16837;SDS011;19510;54.486;9.046;2022-08-02T05:12:14;3.92;;;1.90;;
16837;SDS011;19510;54.486;9.046;2022-08-02T05:14:40;6.53;;;2.25;;
16837;SDS011;19510;54.486;9.046;2022-08-02T05:17:05;6.80;;;1.80;;
16837;SDS011;19510;54.486;9.046;2022-08-02T05:19:31;6.57;;;1.92;;
16837;SDS011;19510;54.486;9.046;2022-08-02T05:21:57;10.02;;;2.17;;
16837;SDS011;19510;54.486;9.046;2022-08-02T05:24:23;6.55;;;2.05;;
16837;SDS011;19510;54.486;9.046;2022-08-02T05:26:48;7.90;;;1.92;;
16837;SDS011;19510;54.486;9.046;2022-08-02T05:29:15;6.95;;;1.70;;
16837;SDS011;19510;54.486;9.046;2022-08-02T05:31:41;6.15;;;2.13;;
16837;SDS011;19510;54.486;9.046;2022-08-02T05:34:06;5.50;;;2.13;;
16837;SDS011;19510;54.486;9.046;2022-08-02T05:36:32;5.70;;;1.88;;
16837;SDS011;19510;54.486;9.046;2022-08-02T05:38:58;4.30;;;2.00;;
16837;SDS011;19510;54.486;9.046;2022-08-02T05:41:23;6.80;;;1.85;;
16837;SDS011;19510;54.486;9.046;2022-08-02T05:43:49;8.63;;;1.88;;
16837;SDS011;19510;54.486;9.046;2022-08-02T05:46:15;3.28;;;1.65;;
16837;SDS011;19510;54.486;9.046;2022-08-02T05:48:41;6.40;;;1.90;;
16837;SDS011;19510;54.486;9.046;2022-08-02T05:51:14;6.55;;;2.00;;
16837;SDS011;19510;54.486;9.046;2022-08-02T05:56:33;4.22;;;1.85;;
16837;SDS011;19510;54.486;9.046;2022-08-02T06:01:34;3.15;;;1.63;;
16837;SDS011;19510;54.486;9.046;2022-08-02T06:04:05;2.85;;;1.42;;
16837;SDS011;19510;54.486;9.046;2022-08-02T06:06:33;8.85;;;2.03;;
16837;SDS011;19510;54.486;9.046;2022-08-02T06:09:09;5.32;;;1.90;;
16837;SDS011;19510;54.486;9.046;2022-08-02T06:11:45;5.82;;;1.88;;
16837;SDS011;19510;54.486;9.046;2022-08-02T06:14:14;5.72;;;1.80;;
16837;SDS011;19510;54.486;9.046;2022-08-02T06:16:40;8.20;;;2.10;;
16837;SDS011;19510;54.486;9.046;2022-08-02T06:19:12;4.75;;;1.80;;
16837;SDS011;19510;54.486;9.046;2022-08-02T06:21:45;4.00;;;1.60;;
16837;SDS011;19510;54.486;9.046;2022-08-02T06:24:18;5.75;;;2.22;;
16837;SDS011;19510;54.486;9.046;2022-08-02T06:26:43;5.90;;;1.85;;
16837;SDS011;19510;54.486;9.046;2022-08-02T06:29:10;8.13;;;2.40;;
16837;SDS011;19510;54.486;9.046;2022-08-02T06:31:37;11.27;;;2.08;;
16837;SDS011;19510;54.486;9.046;2022-08-02T06:34:05;8.27;;;1.90;;
16837;SDS011;19510;54.486;9.046;2022-08-02T06:39:03;6.38;;;2.13;;
16837;SDS011;19510;54.486;9.046;2022-08-02T06:41:38;4.35;;;1.75;;
16837;SDS011;19510;54.486;9.046;2022-08-02T06:44:06;6.68;;;2.13;;
16837;SDS011;19510;54.486;9.046;2022-08-02T06:46:33;5.97;;;2.70;;
16837;SDS011;19510;54.486;9.046;2022-08-02T06:48:59;8.32;;;1.98;;
16837;SDS011;19510;54.486;9.046;2022-08-02T06:51:26;6.45;;;1.67;;
16837;SDS011;19510;54.486;9.046;2022-08-02T06:53:52;6.25;;;1.77;;
16837;SDS011;19510;54.486;9.046;2022-08-02T06:56:17;8.00;;;1.92;;
16837;SDS011;19510;54.486;9.046;2022-08-02T06:58:43;6.00;;;1.88;;
16837;SDS011;19510;54.486;9.046;2022-08-02T07:01:10;6.45;;;1.70;;
16837;SDS011;19510;54.486;9.046;2022-08-02T07:03:36;5.93;;;2.00;;
16837;SDS011;19510;54.486;9.046;2022-08-02T07:06:04;7.22;;;1.83;;
16837;SDS011;19510;54.486;9.046;2022-08-02T07:08:33;15.70;;;2.08;;
16837;SDS011;19510;54.486;9.046;2022-08-02T07:11:02;8.68;;;1.65;;
16837;SDS011;19510;54.486;9.046;2022-08-02T07:13:28;7.20;;;1.75;;
16837;SDS011;19510;54.486;9.046;2022-08-02T07:15:54;6.03;;;1.65;;
16837;SDS011;19510;54.486;9.046;2022-08-02T07:18:21;6.22;;;1.48;;
16837;SDS011;19510;54.486;9.046;2022-08-02T07:20:47;7.03;;;1.67;;
16837;SDS011;19510;54.486;9.046;2022-08-02T07:23:13;7.43;;;1.25;;
16837;SDS011;19510;54.486;9.046;2022-08-02T07:25:39;17.25;;;2.55;;
16837;SDS011;19510;54.486;9.046;2022-08-02T07:28:05;11.82;;;2.22;;
16837;SDS011;19510;54.486;9.046;2022-08-02T07:30:33;4.88;;;1.58;;
16837;SDS011;19510;54.486;9.046;2022-08-02T07:32:58;5.78;;;1.35;;
16837;SDS011;19510;54.486;9.046;2022-08-02T07:35:24;5.38;;;1.30;;
16837;SDS011;19510;54.486;9.046;2022-08-02T07:37:50;6.00;;;1.50;;
16837;SDS011;19510;54.486;9.046;2022-08-02T07:40:16;4.65;;;1.50;;
16837;SDS011;19510;54.486;9.046;2022-08-02T07:42:42;3.92;;;1.48;;
16837;SDS011;19510;54.486;9.046;2022-08-02T07:45:08;6.25;;;1.40;;
16837;SDS011;19510;54.486;9.046;2022-08-02T07:47:35;5.05;;;1.60;;
16837;SDS011;19510;54.486;9.046;2022-08-02T07:50:03;8.00;;;1.80;;
16837;SDS011;19510;54.486;9.046;2022-08-02T07:52:29;13.65;;;2.22;;
16837;SDS011;19510;54.486;9.046;2022-08-02T07:54:55;6.45;;;1.42;;
16837;SDS011;19510;54.486;9.046;2022-08-02T07:57:20;3.95;;;1.52;;
16837;SDS011;19510;54.486;9.046;2022-08-02T07:59:46;4.13;;;1.98;;
16837;SDS011;19510;54.486;9.046;2022-08-02T08:02:12;8.05;;;1.45;;
16837;SDS011;19510;54.486;9.046;2022-08-02T08:04:39;6.32;;;1.70;;
16837;SDS011;19510;54.486;9.046;2022-08-02T08:07:05;9.40;;;1.65;;
16837;SDS011;19510;54.486;9.046;2022-08-02T08:09:34;7.57;;;1.65;;
16837;SDS011;19510;54.486;9.046;2022-08-02T08:12:04;5.13;;;1.38;;
16837;SDS011;19510;54.486;9.046;2022-08-02T08:14:30;3.92;;;1.85;;
16837;SDS011;19510;54.486;9.046;2022-08-02T08:16:56;4.68;;;1.30;;
16837;SDS011;19510;54.486;9.046;2022-08-02T08:19:22;4.20;;;1.40;;
16837;SDS011;19510;54.486;9.046;2022-08-02T08:21:47;4.88;;;1.40;;
16837;SDS011;19510;54.486;9.046;2022-08-02T08:24:13;6.50;;;1.27;;
16837;SDS011;19510;54.486;9.046;2022-08-02T08:26:39;4.53;;;1.55;;
16837;SDS011;19510;54.486;9.046;2022-08-02T08:29:05;5.50;;;1.58;;
16837;SDS011;19510;54.486;9.046;2022-08-02T08:31:31;8.48;;;2.42;;
16837;SDS011;19510;54.486;9.046;2022-08-02T08:34:00;9.10;;;1.52;;
16837;SDS011;19510;54.486;9.046;2022-08-02T08:36:26;8.25;;;1.60;;
16837;SDS011;19510;54.486;9.046;2022-08-02T08:38:52;12.80;;;1.50;;
16837;SDS011;19510;54.486;9.046;2022-08-02T08:41:18;3.40;;;1.02;;
16837;SDS011;19510;54.486;9.046;2022-08-02T08:43:44;4.47;;;1.73;;
16837;SDS011;19510;54.486;9.046;2022-08-02T08:46:16;6.25;;;1.10;;
16837;SDS011;19510;54.486;9.046;2022-08-02T08:48:49;6.63;;;1.50;;
16837;SDS011;19510;54.486;9.046;2022-08-02T08:51:40;3.75;;;1.17;;
16837;SDS011;19510;54.486;9.046;2022-08-02T08:54:08;8.13;;;1.60;;
16837;SDS011;19510;54.486;9.046;2022-08-02T08:56:38;9.27;;;1.75;;
16837;SDS011;19510;54.486;9.046;2022-08-02T08:59:06;4.85;;;1.05;;
16837;SDS011;19510;54.486;9.046;2022-08-02T09:01:31;4.03;;;1.02;;
16837;SDS011;19510;54.486;9.046;2022-08-02T09:03:58;5.07;;;1.10;;
16837;SDS011;19510;54.486;9.046;2022-08-02T09:06:24;2.60;;;1.05;;
16837;SDS011;19510;54.486;9.046;2022-08-02T09:08:50;5.15;;;1.38;;
16837;SDS011;19510;54.486;9.046;2022-08-02T09:11:16;4.25;;;1.35;;
16837;SDS011;19510;54.486;9.046;2022-08-02T09:16:15;11.02;;;1.48;;
16837;SDS011;19510;54.486;9.046;2022-08-02T09:18:59;6.03;;;1.20;;
16837;SDS011;19510;54.486;9.046;2022-08-02T09:21:41;3.03;;;1.10;;
16837;SDS011;19510;54.486;9.046;2022-08-02T09:24:20;8.25;;;1.27;;
16837;SDS011;19510;54.486;9.046;2022-08-02T09:26:47;5.88;;;1.33;;
16837;SDS011;19510;54.486;9.046;2022-08-02T09:29:15;4.78;;;1.17;;
16837;SDS011;19510;54.486;9.046;2022-08-02T09:31:45;7.00;;;1.60;;
16837;SDS011;19510;54.486;9.046;2022-08-02T09:34:11;5.30;;;1.15;;
16837;SDS011;19510;54.486;9.046;2022-08-02T09:36:43;20.83;;;2.05;;
16837;SDS011;19510;54.486;9.046;2022-08-02T09:39:11;5.78;;;1.20;;
16837;SDS011;19510;54.486;9.046;2022-08-02T09:41:41;5.85;;;1.30;;
16837;SDS011;19510;54.486;9.046;2022-08-02T09:44:10;8.50;;;2.13;;
16837;SDS011;19510;54.486;9.046;2022-08-02T09:46:38;3.50;;;1.05;;
16837;SDS011;19510;54.486;9.046;2022-08-02T09:54:17;7.38;;;1.40;;
16837;SDS011;19510;54.486;9.046;2022-08-02T09:56:56;2.97;;;1.08;;
16837;SDS011;19510;54.486;9.046;2022-08-02T09:59:26;6.40;;;1.23;;
16837;SDS011;19510;54.486;9.046;2022-08-02T10:01:53;4.63;;;1.55;;
16837;SDS011;19510;54.486;9.046;2022-08-02T10:04:22;4.85;;;1.40;;
16837;SDS011;19510;54.486;9.046;2022-08-02T10:06:49;4.95;;;1.15;;
16837;SDS011;19510;54.486;9.046;2022-08-02T10:09:19;5.18;;;1.27;;
16837;SDS011;19510;54.486;9.046;2022-08-02T10:11:45;3.35;;;1.10;;
16837;SDS011;19510;54.486;9.046;2022-08-02T10:14:11;1.95;;;0.90;;
16837;SDS011;19510;54.486;9.046;2022-08-02T10:16:38;5.25;;;1.30;;
16837;SDS011;19510;54.486;9.046;2022-08-02T10:19:06;6.53;;;1.10;;
16837;SDS011;19510;54.486;9.046;2022-08-02T10:21:45;2.80;;;1.20;;
16837;SDS011;19510;54.486;9.046;2022-08-02T10:24:26;2.85;;;1.05;;
16837;SDS011;19510;54.486;9.046;2022-08-02T10:26:52;4.22;;;1.30;;
16837;SDS011;19510;54.486;9.046;2022-08-02T10:29:20;3.53;;;1.20;;
16837;SDS011;19510;54.486;9.046;2022-08-02T10:31:58;6.82;;;1.90;;
16837;SDS011;19510;54.486;9.046;2022-08-02T10:34:28;1.98;;;1.00;;
16837;SDS011;19510;54.486;9.046;2022-08-02T10:37:00;5.72;;;1.30;;
16837;SDS011;19510;54.486;9.046;2022-08-02T10:39:37;3.58;;;1.00;;
16837;SDS011;19510;54.486;9.046;2022-08-02T10:42:04;4.00;;;1.20;;
16837;SDS011;19510;54.486;9.046;2022-08-02T10:44:30;3.83;;;1.13;;
16837;SDS011;19510;54.486;9.046;2022-08-02T10:49:49;5.35;;;2.17;;
16837;SDS011;19510;54.486;9.046;2022-08-02T10:52:20;3.92;;;1.08;;
16837;SDS011;19510;54.486;9.046;2022-08-02T10:54:57;4.70;;;1.20;;
16837;SDS011;19510;54.486;9.046;2022-08-02T11:00:00;3.78;;;1.10;;
16837;SDS011;19510;54.486;9.046;2022-08-02T11:05:00;5.50;;;1.25;;
16837;SDS011;19510;54.486;9.046;2022-08-02T11:07:48;2.42;;;1.00;;
16837;SDS011;19510;54.486;9.046;2022-08-02T11:10:38;4.50;;;1.10;;
16837;SDS011;19510;54.486;9.046;2022-08-02T11:13:07;5.07;;;1.08;;
16837;SDS011;19510;54.486;9.046;2022-08-02T11:21:20;2.95;;;1.23;;
16837;SDS011;19510;54.486;9.046;2022-08-02T11:23:56;3.90;;;1.13;;
16837;SDS011;19510;54.486;9.046;2022-08-02T11:26:49;4.50;;;1.00;;
16837;SDS011;19510;54.486;9.046;2022-08-02T11:29:17;2.42;;;0.90;;
16837;SDS011;19510;54.486;9.046;2022-08-02T11:31:44;1.95;;;1.00;;
16837;SDS011;19510;54.486;9.046;2022-08-02T11:34:11;3.47;;;1.30;;
16837;SDS011;19510;54.486;9.046;2022-08-02T11:36:46;6.35;;;1.15;;
16837;SDS011;19510;54.486;9.046;2022-08-02T11:39:17;4.50;;;1.02;;
16837;SDS011;19510;54.486;9.046;2022-08-02T11:44:23;3.63;;;1.30;;
16837;SDS011;19510;54.486;9.046;2022-08-02T11:46:57;4.57;;;0.77;;
16837;SDS011;19510;54.486;9.046;2022-08-02T11:49:24;1.48;;;0.98;;
16837;SDS011;19510;54.486;9.046;2022-08-02T11:51:51;3.72;;;0.95;;
16837;SDS011;19510;54.486;9.046;2022-08-02T11:54:21;2.53;;;1.00;;
16837;SDS011;19510;54.486;9.046;2022-08-02T11:56:48;4.45;;;0.90;;
16837;SDS011;19510;54.486;9.046;2022-08-02T11:59:14;3.20;;;1.10;;
16837;SDS011;19510;54.486;9.046;2022-08-02T12:01:40;2.85;;;1.02;;
16837;SDS011;19510;54.486;9.046;2022-08-02T12:04:06;1.48;;;1.05;;
16837;SDS011;19510;54.486;9.046;2022-08-02T12:06:33;14.77;;;2.05;;
16837;SDS011;19510;54.486;9.046;2022-08-02T12:09:05;5.57;;;1.80;;
16837;SDS011;19510;54.486;9.046;2022-08-02T12:11:35;12.95;;;2.58;;
16837;SDS011;19510;54.486;9.046;2022-08-02T12:14:02;4.78;;;1.20;;
16837;SDS011;19510;54.486;9.046;2022-08-02T12:16:33;21.75;;;2.28;;
16837;SDS011;19510;54.486;9.046;2022-08-02T12:19:22;2.63;;;1.10;;
16837;SDS011;19510;54.486;9.046;2022-08-02T12:24:44;3.60;;;1.30;;
16837;SDS011;19510;54.486;9.046;2022-08-02T12:27:30;7.20;;;1.48;;
16837;SDS011;19510;54.486;9.046;2022-08-02T12:30:05;8.07;;;1.30;;
16837;SDS011;19510;54.486;9.046;2022-08-02T12:32:35;3.38;;;1.30;;
16837;SDS011;19510;54.486;9.046;2022-08-02T12:35:03;5.68;;;1.20;;
16837;SDS011;19510;54.486;9.046;2022-08-02T12:37:29;2.70;;;1.10;;
16837;SDS011;19510;54.486;9.046;2022-08-02T12:39:54;3.72;;;1.13;;
16837;SDS011;19510;54.486;9.046;2022-08-02T12:42:20;1.10;;;0.70;;
16837;SDS011;19510;54.486;9.046;2022-08-02T12:44:49;2.22;;;0.93;;
16837;SDS011;19510;54.486;9.046;2022-08-02T12:47:16;1.45;;;1.08;;
16837;SDS011;19510;54.486;9.046;2022-08-02T12:49:42;4.15;;;1.35;;
16837;SDS011;19510;54.486;9.046;2022-08-02T12:52:18;1.70;;;1.08;;
16837;SDS011;19510;54.486;9.046;2022-08-02T12:54:48;3.80;;;1.23;;
16837;SDS011;19510;54.486;9.046;2022-08-02T12:57:18;4.35;;;1.35;;
16837;SDS011;19510;54.486;9.046;2022-08-02T12:59:51;2.10;;;1.10;;
16837;SDS011;19510;54.486;9.046;2022-08-02T13:02:17;4.80;;;1.00;;
16837;SDS011;19510;54.486;9.046;2022-08-02T13:04:44;10.27;;;1.83;;
16837;SDS011;19510;54.486;9.046;2022-08-02T13:07:10;1.77;;;0.90;;
16837;SDS011;19510;54.486;9.046;2022-08-02T13:09:36;3.45;;;1.40;;
16837;SDS011;19510;54.486;9.046;2022-08-02T13:12:06;13.43;;;2.13;;
16837;SDS011;19510;54.486;9.046;2022-08-02T13:14:32;7.93;;;1.35;;
16837;SDS011;19510;54.486;9.046;2022-08-02T13:16:59;3.13;;;1.15;;
16837;SDS011;19510;54.486;9.046;2022-08-02T13:19:25;2.92;;;1.10;;
16837;SDS011;19510;54.486;9.046;2022-08-02T13:21:51;8.25;;;1.27;;
16837;SDS011;19510;54.486;9.046;2022-08-02T13:24:17;8.50;;;1.05;;
16837;SDS011;19510;54.486;9.046;2022-08-02T13:26:43;2.17;;;1.33;;
16837;SDS011;19510;54.486;9.046;2022-08-02T13:29:12;3.58;;;1.08;;
16837;SDS011;19510;54.486;9.046;2022-08-02T13:31:38;4.60;;;1.60;;
16837;SDS011;19510;54.486;9.046;2022-08-02T13:34:04;2.53;;;1.25;;
16837;SDS011;19510;54.486;9.046;2022-08-02T13:36:34;3.50;;;1.35;;
16837;SDS011;19510;54.486;9.046;2022-08-02T13:39:00;2.80;;;1.30;;
16837;SDS011;19510;54.486;9.046;2022-08-02T13:41:28;6.03;;;1.75;;
16837;SDS011;19510;54.486;9.046;2022-08-02T13:43:55;2.42;;;1.23;;
16837;SDS011;19510;54.486;9.046;2022-08-02T13:46:20;5.65;;;1.38;;
16837;SDS011;19510;54.486;9.046;2022-08-02T13:48:46;1.70;;;1.13;;
16837;SDS011;19510;54.486;9.046;2022-08-02T13:51:11;3.17;;;1.10;;
16837;SDS011;19510;54.486;9.046;2022-08-02T13:53:38;2.05;;;1.05;;
16837;SDS011;19510;54.486;9.046;2022-08-02T13:56:03;6.20;;;1.63;;
16837;SDS011;19510;54.486;9.046;2022-08-02T13:58:29;1.83;;;1.13;;
16837;SDS011;19510;54.486;9.046;2022-08-02T14:00:55;3.15;;;1.52;;
16837;SDS011;19510;54.486;9.046;2022-08-02T14:03:21;2.22;;;1.30;;
16837;SDS011;19510;54.486;9.046;2022-08-02T14:05:47;6.30;;;1.60;;
16837;SDS011;19510;54.486;9.046;2022-08-02T14:08:14;4.93;;;1.70;;
16837;SDS011;19510;54.486;9.046;2022-08-02T14:10:44;3.63;;;1.50;;
16837;SDS011;19510;54.486;9.046;2022-08-02T14:13:11;1.98;;;1.30;;
16837;SDS011;19510;54.486;9.046;2022-08-02T14:15:37;3.08;;;1.70;;
16837;SDS011;19510;54.486;9.046;2022-08-02T14:18:02;4.30;;;1.50;;
16837;SDS011;19510;54.486;9.046;2022-08-02T14:20:28;2.80;;;1.48;;
16837;SDS011;19510;54.486;9.046;2022-08-02T14:22:54;4.05;;;1.50;;
16837;SDS011;19510;54.486;9.046;2022-08-02T14:25:19;4.63;;;1.75;;
16837;SDS011;19510;54.486;9.046;2022-08-02T14:27:45;3.13;;;1.83;;
16837;SDS011;19510;54.486;9.046;2022-08-02T14:30:11;3.42;;;1.70;;
16837;SDS011;19510;54.486;9.046;2022-08-02T14:32:37;4.65;;;2.05;;
16837;SDS011;19510;54.486;9.046;2022-08-02T14:35:03;2.45;;;1.83;;
16837;SDS011;19510;54.486;9.046;2022-08-02T14:37:29;3.70;;;1.42;;
16837;SDS011;19510;54.486;9.046;2022-08-02T14:39:55;3.00;;;1.67;;
16837;SDS011;19510;54.486;9.046;2022-08-02T14:42:20;3.90;;;1.58;;
16837;SDS011;19510;54.486;9.046;2022-08-02T14:44:46;2.30;;;1.55;;
16837;SDS011;19510;54.486;9.046;2022-08-02T14:47:12;11.00;;;6.05;;
16837;SDS011;19510;54.486;9.046;2022-08-02T14:49:37;7.30;;;1.75;;
16837;SDS011;19510;54.486;9.046;2022-08-02T14:52:03;3.65;;;1.67;;
16837;SDS011;19510;54.486;9.046;2022-08-02T14:54:29;5.35;;;2.20;;
16837;SDS011;19510;54.486;9.046;2022-08-02T14:56:56;4.45;;;1.80;;
16837;SDS011;19510;54.486;9.046;2022-08-02T14:59:23;5.47;;;1.75;;
16837;SDS011;19510;54.486;9.046;2022-08-02T15:01:48;8.65;;;1.90;;
16837;SDS011;19510;54.486;9.046;2022-08-02T15:04:14;4.47;;;1.88;;
16837;SDS011;19510;54.486;9.046;2022-08-02T15:06:40;5.65;;;2.13;;
16837;SDS011;19510;54.486;9.046;2022-08-02T15:09:06;5.65;;;1.77;;
16837;SDS011;19510;54.486;9.046;2022-08-02T15:11:31;4.65;;;1.70;;
16837;SDS011;19510;54.486;9.046;2022-08-02T15:13:57;4.97;;;1.75;;
16837;SDS011;19510;54.486;9.046;2022-08-02T15:16:24;8.63;;;2.00;;
16837;SDS011;19510;54.486;9.046;2022-08-02T15:18:50;2.83;;;2.00;;
16837;SDS011;19510;54.486;9.046;2022-08-02T15:21:16;7.45;;;2.17;;
16837;SDS011;19510;54.486;9.046;2022-08-02T15:23:41;5.30;;;2.05;;
16837;SDS011;19510;54.486;9.046;2022-08-02T15:26:07;5.53;;;2.03;;
16837;SDS011;19510;54.486;9.046;2022-08-02T15:28:33;6.60;;;2.35;;
16837;SDS011;19510;54.486;9.046;2022-08-02T15:30:58;7.07;;;2.75;;
16837;SDS011;19510;54.486;9.046;2022-08-02T15:33:24;6.00;;;2.40;;
16837;SDS011;19510;54.486;9.046;2022-08-02T15:35:50;13.40;;;3.58;;
16837;SDS011;19510;54.486;9.046;2022-08-02T15:38:16;8.52;;;2.72;;
16837;SDS011;19510;54.486;9.046;2022-08-02T15:40:42;5.57;;;2.20;;
16837;SDS011;19510;54.486;9.046;2022-08-02T15:43:08;4.97;;;2.33;;
16837;SDS011;19510;54.486;9.046;2022-08-02T15:45:34;7.60;;;2.63;;
16837;SDS011;19510;54.486;9.046;2022-08-02T15:48:01;4.38;;;2.50;;
16837;SDS011;19510;54.486;9.046;2022-08-02T15:50:27;6.97;;;2.53;;
16837;SDS011;19510;54.486;9.046;2022-08-02T15:52:53;5.43;;;2.83;;
16837;SDS011;19510;54.486;9.046;2022-08-02T15:55:21;5.03;;;2.55;;
16837;SDS011;19510;54.486;9.046;2022-08-02T15:57:47;3.20;;;2.25;;
16837;SDS011;19510;54.486;9.046;2022-08-02T16:00:13;3.90;;;2.33;;
16837;SDS011;19510;54.486;9.046;2022-08-02T16:02:39;5.43;;;2.28;;
16837;SDS011;19510;54.486;9.046;2022-08-02T16:05:05;4.90;;;2.00;;
16837;SDS011;19510;54.486;9.046;2022-08-02T16:07:31;3.95;;;2.72;;
16837;SDS011;19510;54.486;9.046;2022-08-02T16:09:57;5.40;;;2.40;;
16837;SDS011;19510;54.486;9.046;2022-08-02T16:12:23;4.30;;;2.47;;
16837;SDS011;19510;54.486;9.046;2022-08-02T16:14:48;5.82;;;2.85;;
16837;SDS011;19510;54.486;9.046;2022-08-02T16:17:14;16.70;;;5.82;;
16837;SDS011;19510;54.486;9.046;2022-08-02T16:19:40;4.18;;;2.72;;
16837;SDS011;19510;54.486;9.046;2022-08-02T16:22:06;7.10;;;2.90;;
16837;SDS011;19510;54.486;9.046;2022-08-02T16:24:31;7.28;;;2.60;;
16837;SDS011;19510;54.486;9.046;2022-08-02T16:26:57;6.57;;;3.15;;
16837;SDS011;19510;54.486;9.046;2022-08-02T16:29:23;3.63;;;2.80;;
16837;SDS011;19510;54.486;9.046;2022-08-02T16:31:49;4.00;;;2.78;;
16837;SDS011;19510;54.486;9.046;2022-08-02T16:34:15;7.07;;;2.60;;
16837;SDS011;19510;54.486;9.046;2022-08-02T16:36:41;6.68;;;2.40;;
16837;SDS011;19510;54.486;9.046;2022-08-02T16:39:06;3.10;;;2.42;;
16837;SDS011;19510;54.486;9.046;2022-08-02T16:41:32;6.20;;;2.65;;
16837;SDS011;19510;54.486;9.046;2022-08-02T16:43:58;4.90;;;2.30;;
16837;SDS011;19510;54.486;9.046;2022-08-02T16:46:23;5.47;;;2.72;;
16837;SDS011;19510;54.486;9.046;2022-08-02T16:48:49;5.72;;;2.63;;
16837;SDS011;19510;54.486;9.046;2022-08-02T16:51:18;3.92;;;2.60;;
16837;SDS011;19510;54.486;9.046;2022-08-02T16:53:43;7.13;;;3.10;;
16837;SDS011;19510;54.486;9.046;2022-08-02T16:56:09;5.85;;;2.78;;
16837;SDS011;19510;54.486;9.046;2022-08-02T16:58:35;3.92;;;2.90;;
16837;SDS011;19510;54.486;9.046;2022-08-02T17:01:01;6.32;;;3.22;;
16837;SDS011;19510;54.486;9.046;2022-08-02T17:03:26;7.07;;;3.30;;
16837;SDS011;19510;54.486;9.046;2022-08-02T17:05:53;4.68;;;3.47;;
16837;SDS011;19510;54.486;9.046;2022-08-02T17:08:19;4.82;;;3.33;;
16837;SDS011;19510;54.486;9.046;2022-08-02T17:10:45;8.88;;;4.05;;
16837;SDS011;19510;54.486;9.046;2022-08-02T17:13:10;8.00;;;4.07;;
16837;SDS011;19510;54.486;9.046;2022-08-02T17:15:36;5.45;;;3.75;;
16837;SDS011;19510;54.486;9.046;2022-08-02T17:18:02;6.78;;;3.78;;
16837;SDS011;19510;54.486;9.046;2022-08-02T17:20:29;6.30;;;3.90;;
16837;SDS011;19510;54.486;9.046;2022-08-02T17:22:55;7.65;;;4.47;;
16837;SDS011;19510;54.486;9.046;2022-08-02T17:25:21;6.60;;;4.40;;
16837;SDS011;19510;54.486;9.046;2022-08-02T17:27:48;6.78;;;4.32;;
16837;SDS011;19510;54.486;9.046;2022-08-02T17:30:14;7.53;;;4.55;;
16837;SDS011;19510;54.486;9.046;2022-08-02T17:32:40;6.25;;;4.35;;
16837;SDS011;19510;54.486;9.046;2022-08-02T17:35:06;7.80;;;5.13;;
16837;SDS011;19510;54.486;9.046;2022-08-02T17:37:32;8.98;;;4.80;;
16837;SDS011;19510;54.486;9.046;2022-08-02T17:39:58;6.40;;;4.75;;
16837;SDS011;19510;54.486;9.046;2022-08-02T17:42:24;7.22;;;4.97;;
16837;SDS011;19510;54.486;9.046;2022-08-02T17:44:51;7.72;;;4.60;;
16837;SDS011;19510;54.486;9.046;2022-08-02T17:47:17;8.80;;;4.95;;
16837;SDS011;19510;54.486;9.046;2022-08-02T17:49:43;6.82;;;4.72;;
16837;SDS011;19510;54.486;9.046;2022-08-02T17:52:09;5.63;;;4.00;;
16837;SDS011;19510;54.486;9.046;2022-08-02T17:54:35;6.00;;;4.60;;
16837;SDS011;19510;54.486;9.046;2022-08-02T17:57:01;9.20;;;5.28;;
16837;SDS011;19510;54.486;9.046;2022-08-02T17:59:26;5.82;;;4.38;;
16837;SDS011;19510;54.486;9.046;2022-08-02T18:01:53;7.10;;;4.25;;
16837;SDS011;19510;54.486;9.046;2022-08-02T18:04:20;6.80;;;4.68;;
16837;SDS011;19510;54.486;9.046;2022-08-02T18:06:51;5.90;;;4.70;;
16837;SDS011;19510;54.486;9.046;2022-08-02T18:09:19;7.13;;;4.70;;
16837;SDS011;19510;54.486;9.046;2022-08-02T18:11:44;6.53;;;5.07;;
16837;SDS011;19510;54.486;9.046;2022-08-02T18:14:11;6.80;;;4.70;;
16837;SDS011;19510;54.486;9.046;2022-08-02T18:16:42;8.05;;;4.35;;
16837;SDS011;19510;54.486;9.046;2022-08-02T18:19:09;8.10;;;4.70;;
16837;SDS011;19510;54.486;9.046;2022-08-02T18:21:36;7.32;;;4.50;;
16837;SDS011;19510;54.486;9.046;2022-08-02T18:24:01;9.23;;;4.57;;
16837;SDS011;19510;54.486;9.046;2022-08-02T18:26:30;6.70;;;4.45;;
16837;SDS011;19510;54.486;9.046;2022-08-02T18:28:57;6.93;;;4.25;;
16837;SDS011;19510;54.486;9.046;2022-08-02T18:31:28;8.23;;;4.55;;
16837;SDS011;19510;54.486;9.046;2022-08-02T18:33:54;6.35;;;4.28;;
16837;SDS011;19510;54.486;9.046;2022-08-02T18:36:19;8.57;;;4.85;;
16837;SDS011;19510;54.486;9.046;2022-08-02T18:38:45;7.05;;;4.07;;
16837;SDS011;19510;54.486;9.046;2022-08-02T18:41:11;6.70;;;4.32;;
16837;SDS011;19510;54.486;9.046;2022-08-02T18:43:36;6.03;;;4.15;;
16837;SDS011;19510;54.486;9.046;2022-08-02T18:46:03;6.15;;;4.07;;
16837;SDS011;19510;54.486;9.046;2022-08-02T18:48:31;7.55;;;3.95;;
16837;SDS011;19510;54.486;9.046;2022-08-02T18:51:04;7.32;;;4.13;;
16837;SDS011;19510;54.486;9.046;2022-08-02T18:53:30;7.38;;;4.07;;
16837;SDS011;19510;54.486;9.046;2022-08-02T18:55:56;6.63;;;4.25;;
16837;SDS011;19510;54.486;9.046;2022-08-02T18:58:22;5.63;;;4.00;;
16837;SDS011;19510;54.486;9.046;2022-08-02T19:00:48;5.80;;;4.35;;
16837;SDS011;19510;54.486;9.046;2022-08-02T19:03:14;5.70;;;3.90;;
16837;SDS011;19510;54.486;9.046;2022-08-02T19:05:40;5.53;;;3.65;;
16837;SDS011;19510;54.486;9.046;2022-08-02T19:08:06;7.97;;;4.07;;
16837;SDS011;19510;54.486;9.046;2022-08-02T19:10:33;7.60;;;3.92;;
16837;SDS011;19510;54.486;9.046;2022-08-02T19:13:03;9.35;;;3.72;;
16837;SDS011;19510;54.486;9.046;2022-08-02T19:15:29;6.38;;;4.28;;
16837;SDS011;19510;54.486;9.046;2022-08-02T19:17:55;5.13;;;3.85;;
16837;SDS011;19510;54.486;9.046;2022-08-02T19:20:22;5.45;;;4.03;;
16837;SDS011;19510;54.486;9.046;2022-08-02T19:22:49;4.07;;;3.53;;
16837;SDS011;19510;54.486;9.046;2022-08-02T19:25:15;7.95;;;4.25;;
16837;SDS011;19510;54.486;9.046;2022-08-02T19:27:42;6.68;;;4.57;;
16837;SDS011;19510;54.486;9.046;2022-08-02T19:30:11;6.22;;;4.05;;
16837;SDS011;19510;54.486;9.046;2022-08-02T19:32:38;7.05;;;4.20;;